createdAt,value
2022-12-04T00:01:15.307Z,47.80
2022-12-04T00:03:42.955Z,46.73
2022-12-04T00:06:11.674Z,47.60
2022-12-04T00:08:39.658Z,46.57
2022-12-04T00:11:09.152Z,49.57
2022-12-04T00:13:37.373Z,48.40
2022-12-04T00:16:05.163Z,46.57
2022-12-04T00:18:34.200Z,46.20
2022-12-04T00:21:04.991Z,44.63
2022-12-04T00:23:32.746Z,44.80
2022-12-04T00:26:04.415Z,44.03
2022-12-04T00:28:31.968Z,44.03
2022-12-04T00:30:58.966Z,41.50
2022-12-04T00:33:26.713Z,43.03
2022-12-04T00:35:59.017Z,41.67
2022-12-04T00:38:26.708Z,43.97
2022-12-04T00:40:53.992Z,41.20
2022-12-04T00:43:21.757Z,41.37
2022-12-04T00:45:48.844Z,41.20
2022-12-04T00:48:16.389Z,42.17
2022-12-04T00:50:43.307Z,38.63
2022-12-04T00:53:12.813Z,41.43
2022-12-04T00:55:40.184Z,39.47
2022-12-04T00:58:07.850Z,42.30
2022-12-04T01:00:35.496Z,41.20
2022-12-04T01:03:03.234Z,41.20
2022-12-04T01:05:30.616Z,42.93
2022-12-04T01:07:57.935Z,40.87
2022-12-04T01:10:26.240Z,38.33
2022-12-04T01:12:53.897Z,39.10
2022-12-04T01:15:20.754Z,41.30
2022-12-04T01:17:48.169Z,39.97
2022-12-04T01:20:15.697Z,40.43
2022-12-04T01:22:43.025Z,41.10
2022-12-04T01:25:10.466Z,38.70
2022-12-04T01:27:39.063Z,41.03
2022-12-04T01:30:07.438Z,41.53
2022-12-04T01:32:34.697Z,41.20
2022-12-04T01:35:01.655Z,40.20
2022-12-04T01:37:31.287Z,41.23
2022-12-04T01:39:58.433Z,40.57
2022-12-04T01:42:25.676Z,40.00
2022-12-04T01:45:29.731Z,41.47
2022-12-04T01:48:03.667Z,41.17
2022-12-04T01:50:30.565Z,40.57
2022-12-04T01:52:57.810Z,44.03
2022-12-04T01:55:25.338Z,42.37
2022-12-04T01:57:52.592Z,41.57
2022-12-04T02:00:19.984Z,42.10
2022-12-04T02:02:48.462Z,42.63
2022-12-04T02:05:21.362Z,42.20
2022-12-04T02:07:51.706Z,42.97
2022-12-04T02:10:24.422Z,47.50
2022-12-04T02:13:03.003Z,45.07
2022-12-04T02:15:35.060Z,44.03
2022-12-04T02:18:10.260Z,42.97
2022-12-04T02:20:42.608Z,44.73
2022-12-04T02:23:23.472Z,41.53
2022-12-04T02:25:59.395Z,42.33
2022-12-04T02:28:31.240Z,44.57
2022-12-04T02:31:01.155Z,44.00
2022-12-04T02:33:32.377Z,44.00
2022-12-04T02:36:05.137Z,42.20
2022-12-04T02:38:36.202Z,45.80
2022-12-04T02:41:09.695Z,44.17
2022-12-04T02:43:42.794Z,43.53
2022-12-04T02:46:15.138Z,46.03
2022-12-04T02:48:45.491Z,44.33
2022-12-04T02:51:15.937Z,46.33
2022-12-04T02:53:49.631Z,45.33
2022-12-04T02:56:20.134Z,45.00
2022-12-04T02:58:53.718Z,46.17
2022-12-04T03:01:25.210Z,44.47
2022-12-04T03:03:57.639Z,45.50
2022-12-04T03:06:27.810Z,45.77
2022-12-04T03:09:03.328Z,46.07
2022-12-04T03:11:34.110Z,45.93
2022-12-04T03:14:08.605Z,44.83
2022-12-04T03:16:39.544Z,45.20
2022-12-04T03:19:10.979Z,45.17
2022-12-04T03:21:48.152Z,47.27
2022-12-04T03:24:20.267Z,46.27
2022-12-04T03:26:49.116Z,47.30
2022-12-04T03:29:22.091Z,47.57
2022-12-04T03:31:54.231Z,44.77
2022-12-04T03:34:27.116Z,46.97
2022-12-04T03:36:57.226Z,47.10
2022-12-04T03:39:30.796Z,48.87
2022-12-04T03:42:02.080Z,47.30
2022-12-04T03:44:38.295Z,47.97
2022-12-04T03:47:11.872Z,47.73
2022-12-04T03:49:45.690Z,49.63
2022-12-04T03:52:18.058Z,47.33
2022-12-04T03:54:50.232Z,48.17
2022-12-04T03:57:20.778Z,48.13
2022-12-04T03:59:55.799Z,47.03
2022-12-04T04:02:26.353Z,47.70
2022-12-04T04:04:57.447Z,47.93
2022-12-04T04:07:34.824Z,47.70
2022-12-04T04:10:08.495Z,47.43
2022-12-04T04:12:41.355Z,48.47
2022-12-04T04:15:36.949Z,45.60
2022-12-04T04:18:22.763Z,44.77
2022-12-04T04:21:13.358Z,47.53
2022-12-04T04:24:02.556Z,46.37
2022-12-04T04:26:34.533Z,45.07
2022-12-04T04:29:02.088Z,47.00
2022-12-04T04:31:37.036Z,45.80
2022-12-04T04:34:10.727Z,48.27
2022-12-04T04:36:46.065Z,46.27
2022-12-04T04:39:19.072Z,46.47
2022-12-04T04:41:53.116Z,45.70
2022-12-04T04:44:26.657Z,48.53
2022-12-04T04:46:59.923Z,47.27
2022-12-04T04:49:30.885Z,46.13
2022-12-04T04:51:58.832Z,46.13
2022-12-04T04:54:28.028Z,47.43
2022-12-04T04:56:55.407Z,47.30
2022-12-04T04:59:22.384Z,46.53
2022-12-04T05:01:49.764Z,46.77
2022-12-04T05:04:18.080Z,47.37
2022-12-04T05:06:45.388Z,46.87
2022-12-04T05:09:12.298Z,47.13
2022-12-04T05:11:39.668Z,45.67
2022-12-04T05:14:06.634Z,48.50
2022-12-04T05:16:33.968Z,45.47
2022-12-04T05:19:19.548Z,47.77
2022-12-04T05:21:48.194Z,46.37
2022-12-04T05:24:15.203Z,46.53
2022-12-04T05:26:42.444Z,45.83
2022-12-04T05:29:09.739Z,46.20
2022-12-04T05:31:37.012Z,46.43
2022-12-04T05:34:03.957Z,46.70
2022-12-04T05:36:31.250Z,46.20
2022-12-04T05:38:59.643Z,45.73
2022-12-04T05:41:26.815Z,46.23
2022-12-04T05:43:53.789Z,44.97
2022-12-04T05:46:21.111Z,48.17
2022-12-04T05:48:48.094Z,46.07
2022-12-04T05:51:15.328Z,46.63
2022-12-04T05:53:42.363Z,45.47
2022-12-04T05:56:11.386Z,45.07
2022-12-04T05:58:38.870Z,46.10
2022-12-04T06:01:10.985Z,45.50
2022-12-04T06:03:37.917Z,47.27
2022-12-04T06:06:10.201Z,44.17
2022-12-04T06:08:37.092Z,45.87
2022-12-04T06:11:12.334Z,44.97
2022-12-04T06:13:41.263Z,45.40
2022-12-04T06:16:13.059Z,46.30
2022-12-04T06:18:40.274Z,45.33
2022-12-04T06:21:07.374Z,45.60
2022-12-04T06:23:34.282Z,45.97
2022-12-04T06:26:07.131Z,46.57
2022-12-04T06:28:37.696Z,44.87
2022-12-04T06:31:06.536Z,47.43
2022-12-04T06:33:33.688Z,44.60
2022-12-04T06:36:01.615Z,44.63
2022-12-04T06:38:28.547Z,47.40
2022-12-04T06:40:56.385Z,45.10
2022-12-04T06:43:23.606Z,45.70
2022-12-04T06:46:00.297Z,45.93
2022-12-04T06:48:29.359Z,46.87
2022-12-04T06:51:01.004Z,46.23
2022-12-04T06:53:30.204Z,45.20
2022-12-04T06:55:58.668Z,44.83
2022-12-04T06:58:25.748Z,47.90
2022-12-04T07:00:55.611Z,46.13
2022-12-04T07:03:24.014Z,47.60
2022-12-04T07:05:51.648Z,47.33
2022-12-04T07:08:18.820Z,47.43
2022-12-04T07:10:46.218Z,46.93
2022-12-04T07:13:13.206Z,48.33
2022-12-04T07:15:40.445Z,48.43
2022-12-04T07:18:08.858Z,46.87
2022-12-04T07:20:39.407Z,46.47
2022-12-04T07:23:07.508Z,46.87
2022-12-04T07:25:38.656Z,48.83
2022-12-04T07:28:05.826Z,48.03
2022-12-04T07:30:33.181Z,47.23
2022-12-04T07:33:00.096Z,47.97
2022-12-04T07:35:28.682Z,47.93
2022-12-04T07:37:55.560Z,48.93
2022-12-04T07:40:23.131Z,48.47
2022-12-04T07:42:50.065Z,49.93
2022-12-04T07:45:17.207Z,49.70
2022-12-04T07:47:44.076Z,50.57
2022-12-04T07:50:11.054Z,48.07
2022-12-04T07:52:40.159Z,49.67
2022-12-04T07:55:08.032Z,48.77
2022-12-04T07:57:34.939Z,48.63
2022-12-04T08:00:02.199Z,49.87
2022-12-04T08:02:29.582Z,49.53
2022-12-04T08:04:56.954Z,50.70
2022-12-04T08:07:24.130Z,47.23
2022-12-04T08:09:52.588Z,47.97
2022-12-04T08:12:19.577Z,49.33
2022-12-04T08:14:46.937Z,49.20
2022-12-04T08:17:13.931Z,47.37
2022-12-04T08:19:41.142Z,49.20
2022-12-04T08:22:08.086Z,49.80
2022-12-04T08:24:35.991Z,50.07
2022-12-04T08:27:04.706Z,48.90
2022-12-04T08:29:31.923Z,48.93
2022-12-04T08:31:58.927Z,48.17
2022-12-04T08:34:26.174Z,47.83
2022-12-04T08:36:53.026Z,49.37
2022-12-04T08:39:19.993Z,49.40
2022-12-04T08:41:47.683Z,48.93
2022-12-04T08:44:17.687Z,50.10
2022-12-04T08:46:44.632Z,49.83
2022-12-04T08:49:11.617Z,50.80
2022-12-04T08:51:39.318Z,49.77
2022-12-04T08:54:08.670Z,50.73
2022-12-04T08:56:37.363Z,49.83
2022-12-04T08:59:05.487Z,47.40
2022-12-04T09:01:33.765Z,48.40
2022-12-04T09:04:00.792Z,47.30
2022-12-04T09:06:27.701Z,48.63
2022-12-04T09:08:55.779Z,48.33
2022-12-04T09:11:24.425Z,48.00
2022-12-04T09:13:51.945Z,47.87
2022-12-04T09:16:21.676Z,48.57
2022-12-04T09:18:50.679Z,48.30
2022-12-04T09:21:19.409Z,47.97
2022-12-04T09:23:46.886Z,46.03
2022-12-04T09:26:21.620Z,48.93
2022-12-04T09:28:49.881Z,45.27
2022-12-04T09:31:18.250Z,47.27
2022-12-04T09:33:46.030Z,45.43
2022-12-04T09:36:17.767Z,45.07
2022-12-04T09:38:46.302Z,46.27
2022-12-04T09:41:44.908Z,45.57
2022-12-04T09:44:18.976Z,46.77
2022-12-04T09:46:52.062Z,46.60
2022-12-04T09:49:24.489Z,47.57
2022-12-04T09:51:55.566Z,45.50
2022-12-04T09:54:26.669Z,46.80
2022-12-04T09:56:58.861Z,45.40
2022-12-04T09:59:28.136Z,44.10
2022-12-04T10:02:02.150Z,44.93
2022-12-04T10:04:30.395Z,45.33
2022-12-04T10:07:04.716Z,47.00
2022-12-04T10:09:42.478Z,45.53
2022-12-04T10:12:21.261Z,45.73
2022-12-04T10:15:03.933Z,44.43
2022-12-04T10:17:47.453Z,44.97
2022-12-04T10:20:26.401Z,45.90
2022-12-04T10:23:07.095Z,44.87
2022-12-04T10:25:39.009Z,45.30
2022-12-04T10:28:16.354Z,44.20
2022-12-04T10:30:45.601Z,44.23
2022-12-04T10:33:17.895Z,46.07
2022-12-04T10:35:48.301Z,44.00
2022-12-04T10:38:29.534Z,44.47
2022-12-04T10:41:00.540Z,45.90
2022-12-04T10:43:36.307Z,44.93
2022-12-04T10:46:06.053Z,50.57
2022-12-04T10:48:35.177Z,43.70
2022-12-04T10:51:02.840Z,43.63
2022-12-04T10:53:34.971Z,43.03
2022-12-04T10:56:10.447Z,45.33
2022-12-04T10:58:37.511Z,41.43
2022-12-04T11:01:06.762Z,43.80
2022-12-04T11:03:35.234Z,44.13
2022-12-04T11:06:04.396Z,43.23
2022-12-04T11:08:37.426Z,43.70
2022-12-04T11:11:07.163Z,42.30
2022-12-04T11:13:34.491Z,43.83
2022-12-04T11:16:03.754Z,44.37
2022-12-04T11:18:32.926Z,43.97
2022-12-04T11:21:02.694Z,43.30
2022-12-04T11:23:34.436Z,43.20
2022-12-04T11:26:05.803Z,42.67
2022-12-04T11:28:41.687Z,42.97
2022-12-04T11:31:11.300Z,40.30
2022-12-04T11:33:47.314Z,42.77
2022-12-04T11:36:21.204Z,41.57
2022-12-04T11:38:50.956Z,41.10
2022-12-04T11:41:26.926Z,40.17
2022-12-04T11:43:59.531Z,42.07
2022-12-04T11:46:28.864Z,42.77
2022-12-04T11:48:55.838Z,43.60
2022-12-04T11:51:32.543Z,45.93
2022-12-04T11:54:06.855Z,43.97
2022-12-04T11:56:36.132Z,43.33
2022-12-04T11:59:34.160Z,43.57
2022-12-04T12:02:13.028Z,45.60
2022-12-04T12:05:04.279Z,44.00
2022-12-04T12:07:42.317Z,45.10
2022-12-04T12:10:19.450Z,42.43
2022-12-04T12:12:57.164Z,43.80
2022-12-04T12:15:32.098Z,43.50
2022-12-04T12:18:17.735Z,46.27
2022-12-04T12:20:58.800Z,45.80
2022-12-04T12:23:45.735Z,45.23
2022-12-04T12:26:15.783Z,43.23
2022-12-04T12:29:02.169Z,44.10
2022-12-04T12:31:51.477Z,42.33
2022-12-04T12:34:27.405Z,45.43
2022-12-04T12:37:00.671Z,40.97
2022-12-04T12:39:40.407Z,43.67
2022-12-04T12:42:15.913Z,43.27
2022-12-04T12:44:49.051Z,46.43
2022-12-04T12:47:19.840Z,50.37
2022-12-04T12:49:52.714Z,43.47
2022-12-04T12:52:30.085Z,43.57
2022-12-04T12:55:02.709Z,43.23
2022-12-04T12:57:36.320Z,44.43
2022-12-04T13:00:07.687Z,44.23
2022-12-04T13:02:42.660Z,43.93
2022-12-04T13:05:13.098Z,43.53
2022-12-04T13:07:49.394Z,43.57
2022-12-04T13:10:20.302Z,44.53
2022-12-04T13:12:52.982Z,44.00
2022-12-04T13:15:24.452Z,43.77
2022-12-04T13:17:54.530Z,46.27
2022-12-04T13:20:26.486Z,46.30
2022-12-04T13:23:10.961Z,47.90
2022-12-04T13:25:48.798Z,44.27
2022-12-04T13:28:31.666Z,45.37
2022-12-04T13:31:08.300Z,43.13
2022-12-04T13:33:55.350Z,44.63
2022-12-04T13:36:40.155Z,43.80
2022-12-04T13:39:35.621Z,44.90
2022-12-04T13:42:05.454Z,44.07
2022-12-04T13:44:35.402Z,42.27
2022-12-04T13:47:04.837Z,43.83
2022-12-04T13:49:33.168Z,46.50
2022-12-04T13:52:02.814Z,48.03
2022-12-04T13:54:32.059Z,43.03
2022-12-04T13:57:17.679Z,42.73
2022-12-04T13:59:48.762Z,42.47
2022-12-04T14:02:26.140Z,43.57
2022-12-04T14:04:56.370Z,42.67
2022-12-04T14:07:27.699Z,44.90
2022-12-04T14:09:56.740Z,46.47
2022-12-04T14:12:28.671Z,47.77
2022-12-04T14:15:00.216Z,45.60
2022-12-04T14:17:30.205Z,45.57
2022-12-04T14:20:02.908Z,44.30
2022-12-04T14:22:42.387Z,48.87
2022-12-04T14:25:24.287Z,47.47
2022-12-04T14:27:52.925Z,49.03
2022-12-04T14:30:24.352Z,49.93
2022-12-04T14:32:55.071Z,51.07
2022-12-04T14:35:24.644Z,49.63
2022-12-04T14:37:55.623Z,52.57
2022-12-04T14:40:25.918Z,48.83
2022-12-04T14:42:54.220Z,48.83
2022-12-04T14:45:32.444Z,48.10
2022-12-04T14:48:25.940Z,47.90
2022-12-04T14:51:00.621Z,45.70
2022-12-04T14:53:36.466Z,45.50
2022-12-04T14:56:17.045Z,44.63
2022-12-04T14:58:44.798Z,46.37
2022-12-04T15:01:28.321Z,47.70
2022-12-04T15:04:01.526Z,50.63
2022-12-04T15:06:31.588Z,53.80
2022-12-04T15:09:26.687Z,52.20
2022-12-04T15:12:16.071Z,49.53
2022-12-04T15:14:45.012Z,52.50
2022-12-04T15:17:18.923Z,54.43
2022-12-04T15:19:45.910Z,61.50
2022-12-04T15:22:21.028Z,54.07
2022-12-04T15:24:48.071Z,52.23
2022-12-04T15:27:17.213Z,46.30
2022-12-04T15:29:48.706Z,48.50
2022-12-04T15:32:20.434Z,49.43
2022-12-04T15:34:51.074Z,49.00
2022-12-04T15:37:21.111Z,48.90
2022-12-04T15:39:51.827Z,50.40
2022-12-04T15:42:26.163Z,46.73
2022-12-04T15:45:01.519Z,49.27
2022-12-04T15:47:32.848Z,47.83
2022-12-04T15:50:09.417Z,48.37
2022-12-04T15:52:37.528Z,48.90
2022-12-04T15:55:08.355Z,46.23
2022-12-04T15:57:37.840Z,52.90
2022-12-04T16:00:07.707Z,49.70
2022-12-04T16:02:40.248Z,50.60
2022-12-04T16:05:14.273Z,48.23
2022-12-04T16:07:50.350Z,47.73
2022-12-04T16:10:22.312Z,48.93
2022-12-04T16:12:54.298Z,46.93
2022-12-04T16:15:21.657Z,47.73
2022-12-04T16:17:51.240Z,47.07
2022-12-04T16:20:18.528Z,45.83
2022-12-04T16:22:45.710Z,48.13
2022-12-04T16:25:13.565Z,46.70
2022-12-04T16:27:40.827Z,48.83
2022-12-04T16:30:09.393Z,48.30
2022-12-04T16:32:36.639Z,48.27
2022-12-04T16:35:06.417Z,46.33
2022-12-04T16:37:33.684Z,47.43
2022-12-04T16:40:06.340Z,49.60
2022-12-04T16:42:34.898Z,56.03
2022-12-04T16:45:02.026Z,52.90
2022-12-04T16:47:29.865Z,49.73
2022-12-04T16:49:56.744Z,48.97
2022-12-04T16:52:25.464Z,45.13
2022-12-04T16:54:52.390Z,45.23
2022-12-04T16:57:19.500Z,46.73
2022-12-04T16:59:46.431Z,45.47
2022-12-04T17:02:17.807Z,46.37
2022-12-04T17:04:44.807Z,45.00
2022-12-04T17:07:12.151Z,47.17
2022-12-04T17:09:40.469Z,45.23
2022-12-04T17:12:08.137Z,47.43
2022-12-04T17:14:35.613Z,52.07
2022-12-04T17:17:02.879Z,49.10
2022-12-04T17:19:30.031Z,47.27
2022-12-04T17:21:58.812Z,46.77
2022-12-04T17:24:25.719Z,45.73
2022-12-04T17:26:53.969Z,45.30
2022-12-04T17:29:21.048Z,45.47
2022-12-04T17:31:47.959Z,45.23
2022-12-04T17:34:16.643Z,44.53
2022-12-04T17:36:43.553Z,46.97
2022-12-04T17:39:12.102Z,47.70
2022-12-04T17:41:39.012Z,47.70
2022-12-04T17:44:07.717Z,52.53
2022-12-04T17:46:34.724Z,51.87
2022-12-04T17:49:06.788Z,65.87
2022-12-04T17:51:35.758Z,84.57
2022-12-04T17:54:02.785Z,53.50
2022-12-04T17:56:29.718Z,49.67
2022-12-04T17:58:57.122Z,50.60
2022-12-04T18:01:27.266Z,53.77
2022-12-04T18:03:56.955Z,66.90
2022-12-04T18:06:25.709Z,51.00
2022-12-04T18:08:53.358Z,48.80
2022-12-04T18:11:22.358Z,44.90
2022-12-04T18:13:53.911Z,43.60
2022-12-04T18:16:20.899Z,43.20
2022-12-04T18:18:50.742Z,43.90
2022-12-04T18:21:17.646Z,43.23
2022-12-04T18:23:46.085Z,43.17
2022-12-04T18:26:14.821Z,43.23
2022-12-04T18:28:42.317Z,43.63
2022-12-04T18:31:10.141Z,43.87
2022-12-04T18:33:38.928Z,43.70
2022-12-04T18:36:09.329Z,42.30
2022-12-04T18:38:37.957Z,44.53
2022-12-04T18:41:06.755Z,39.93
2022-12-04T18:43:34.713Z,41.13
2022-12-04T18:46:07.315Z,41.00
2022-12-04T18:48:35.613Z,43.40
2022-12-04T18:51:14.175Z,42.30
2022-12-04T18:53:42.922Z,42.23
2022-12-04T18:56:09.883Z,40.63
2022-12-04T18:58:36.772Z,40.60
2022-12-04T19:01:06.445Z,41.03
2022-12-04T19:03:33.879Z,46.17
2022-12-04T19:06:01.111Z,45.63
2022-12-04T19:08:32.944Z,47.63
2022-12-04T19:11:07.645Z,46.20
2022-12-04T19:13:35.129Z,47.03
2022-12-04T19:16:02.734Z,41.63
2022-12-04T19:18:31.119Z,42.57
2022-12-04T19:20:57.993Z,43.83
2022-12-04T19:23:25.294Z,38.37
2022-12-04T19:25:56.167Z,41.90
2022-12-04T19:28:25.441Z,39.87
2022-12-04T19:30:52.710Z,42.30
2022-12-04T19:33:20.393Z,43.00
2022-12-04T19:35:57.149Z,46.73
2022-12-04T19:38:24.717Z,44.50
2022-12-04T19:41:02.873Z,41.30
2022-12-04T19:43:31.322Z,41.90
2022-12-04T19:45:58.299Z,45.30
2022-12-04T19:48:25.443Z,39.47
2022-12-04T19:50:52.346Z,45.57
2022-12-04T19:53:19.705Z,47.00
2022-12-04T19:55:46.789Z,45.27
2022-12-04T19:58:14.745Z,41.27
2022-12-04T20:00:42.989Z,41.07
2022-12-04T20:03:10.370Z,42.23
2022-12-04T20:05:37.702Z,41.97
2022-12-04T20:10:34.414Z,43.17
2022-12-04T20:13:01.318Z,41.50
2022-12-04T20:15:28.174Z,40.57
2022-12-04T20:17:57.554Z,38.80
2022-12-04T20:20:24.441Z,39.23
2022-12-04T20:22:51.653Z,41.77
2022-12-04T20:25:18.541Z,40.87
2022-12-04T20:27:45.853Z,40.33
2022-12-04T20:30:13.049Z,38.90
2022-12-04T20:32:40.441Z,40.90
2022-12-04T20:35:09.639Z,39.47
2022-12-04T20:37:36.940Z,37.73
2022-12-04T20:40:04.648Z,38.37
2022-12-04T20:42:33.658Z,37.90
2022-12-04T20:45:00.672Z,42.70
2022-12-04T20:47:28.161Z,39.20
2022-12-04T20:49:55.864Z,39.40
2022-12-04T20:52:24.646Z,38.17
2022-12-04T20:54:51.557Z,38.67
2022-12-04T20:57:18.779Z,38.77
2022-12-04T20:59:45.972Z,38.90
2022-12-04T21:02:15.857Z,38.83
2022-12-04T21:04:42.775Z,37.53
2022-12-04T21:07:09.714Z,37.53
2022-12-04T21:09:37.942Z,39.90
2022-12-04T21:12:25.172Z,37.13
2022-12-04T21:15:10.394Z,38.57
2022-12-04T21:17:37.778Z,35.23
2022-12-04T21:20:08.004Z,37.10
2022-12-04T21:22:35.370Z,36.60
2022-12-04T21:25:04.532Z,37.00
2022-12-04T21:27:31.577Z,37.00
2022-12-04T21:29:59.882Z,36.07
2022-12-04T21:32:26.866Z,37.40
2022-12-04T21:34:53.739Z,36.00
2022-12-04T21:37:20.906Z,36.53
2022-12-04T21:39:47.801Z,38.00
2022-12-04T21:42:31.252Z,36.53
2022-12-04T21:44:58.823Z,35.57
2022-12-04T21:47:26.123Z,33.93
2022-12-04T21:49:54.392Z,34.43
2022-12-04T21:52:22.643Z,34.57
2022-12-04T21:54:50.291Z,35.93
2022-12-04T21:57:19.565Z,35.60
2022-12-04T21:59:46.562Z,36.63
2022-12-04T22:02:15.486Z,35.10
2022-12-04T22:04:43.060Z,35.77
2022-12-04T22:07:10.286Z,34.00
2022-12-04T22:09:38.140Z,35.10
2022-12-04T22:12:26.425Z,34.20
2022-12-04T22:14:53.750Z,34.43
2022-12-04T22:17:20.690Z,34.10
2022-12-04T22:19:47.599Z,34.47
2022-12-04T22:22:14.885Z,36.67
2022-12-04T22:24:41.791Z,41.13
2022-12-04T22:27:15.158Z,36.33
2022-12-04T22:29:50.366Z,33.97
2022-12-04T22:32:30.628Z,33.63
2022-12-04T22:34:57.575Z,34.97
2022-12-04T22:37:25.031Z,35.03
2022-12-04T22:39:51.892Z,35.37
2022-12-04T22:42:18.807Z,35.97
2022-12-04T22:44:45.683Z,35.83
2022-12-04T22:47:13.035Z,34.97
2022-12-04T22:49:41.277Z,35.73
2022-12-04T22:52:08.242Z,35.23
2022-12-04T22:54:35.228Z,34.60
2022-12-04T22:57:02.421Z,36.47
2022-12-04T22:59:29.560Z,35.57
2022-12-04T23:01:56.533Z,35.80
2022-12-04T23:04:23.423Z,36.47
2022-12-04T23:06:51.908Z,36.43
2022-12-04T23:09:18.967Z,36.17
2022-12-04T23:11:50.237Z,37.07
2022-12-04T23:14:17.261Z,35.60
2022-12-04T23:16:44.915Z,35.37
2022-12-04T23:19:14.341Z,34.83
2022-12-04T23:21:42.198Z,35.23
2022-12-04T23:24:11.729Z,36.70
2022-12-04T23:26:40.620Z,35.97
2022-12-04T23:29:29.699Z,35.50
2022-12-04T23:31:55.434Z,34.03
2022-12-04T23:34:22.554Z,35.47
2022-12-04T23:36:49.518Z,34.57
2022-12-04T23:39:17.693Z,34.70
2022-12-04T23:41:44.929Z,34.37
2022-12-04T23:44:11.784Z,35.10
2022-12-04T23:46:38.734Z,35.23
2022-12-04T23:49:05.610Z,35.13
2022-12-04T23:51:32.727Z,34.60
2022-12-04T23:53:59.783Z,36.23
2022-12-04T23:56:28.637Z,34.97
2022-12-04T23:58:57.397Z,35.27
